Time;durP1;ratioP1;P1;durP2;ratioP2;P2;SDS_P1;SDS_P2;PMS_P1;PMS_P2;Temp;Humidity;BMP_temperature;BMP_pressure;BME280_temperature;BME280_humidity;BME280_pressure;Samples;Min_cycle;Max_cycle;Signal;HPM_P1;HPM_P2
2023/01/20 00:01:23;;;;;;;9.53;5.70;;;4.30;99.90;;;;;;7385523;19;20257;-74
2023/01/20 00:03:50;;;;;;;8.80;5.77;;;4.30;99.90;;;;;;7389279;19;20158;-76
2023/01/20 00:06:16;;;;;;;10.90;6.37;;;4.40;99.90;;;;;;7388277;19;20135;-76
2023/01/20 00:08:42;;;;;;;12.33;6.27;;;3.50;99.90;;;;;;7390892;19;20155;-76
2023/01/20 00:11:10;;;;;;;8.37;6.20;;;3.80;99.90;;;;;;7388155;19;20139;-76
2023/01/20 00:13:36;;;;;;;13.30;7.43;;;4.00;99.90;;;;;;7387972;19;20174;-77
2023/01/20 00:16:04;;;;;;;10.07;6.60;;;4.00;99.90;;;;;;7390556;19;20142;-77
2023/01/20 00:18:30;;;;;;;10.20;6.37;;;3.80;99.90;;;;;;7389653;19;20134;-75
2023/01/20 00:21:00;;;;;;;8.67;5.43;;;3.70;99.90;;;;;;7387598;19;20146;-77
2023/01/20 00:23:26;;;;;;;12.93;6.47;;;4.00;99.90;;;;;;7388344;19;20523;-77
2023/01/20 00:25:52;;;;;;;10.20;6.37;;;4.10;99.90;;;;;;7388337;19;20153;-76
2023/01/20 00:28:17;;;;;;;12.77;6.90;;;4.10;99.90;;;;;;7387622;19;20159;-77
2023/01/20 00:30:44;;;;;;;12.80;6.87;;;4.30;99.90;;;;;;7387535;19;20143;-77
2023/01/20 00:33:10;;;;;;;10.17;6.23;;;4.30;99.90;;;;;;7382314;19;20578;-76
2023/01/20 00:35:37;;;;;;;12.43;7.60;;;4.30;99.90;;;;;;7387698;19;20131;-75
2023/01/20 00:38:03;;;;;;;12.27;7.30;;;3.90;99.90;;;;;;7387303;19;20139;-76
2023/01/20 00:40:29;;;;;;;14.13;7.43;;;3.70;99.90;;;;;;7387401;19;20662;-76
2023/01/20 00:42:54;;;;;;;14.30;8.10;;;3.90;99.90;;;;;;7388467;19;20218;-77
2023/01/20 00:45:20;;;;;;;13.07;7.43;;;4.10;99.90;;;;;;7384478;19;20483;-76
2023/01/20 00:47:46;;;;;;;13.20;7.67;;;3.90;99.90;;;;;;7388100;19;20142;-76
2023/01/20 00:50:12;;;;;;;14.93;7.43;;;4.10;99.90;;;;;;7386876;19;20131;-77
2023/01/20 00:52:37;;;;;;;13.43;7.77;;;4.00;99.90;;;;;;7387298;19;20143;-75
2023/01/20 00:55:03;;;;;;;10.83;7.10;;;3.50;99.90;;;;;;7388232;19;20155;-74
2023/01/20 00:57:29;;;;;;;13.53;7.57;;;3.50;99.90;;;;;;7388032;19;20178;-75
2023/01/20 00:59:55;;;;;;;11.33;7.10;;;3.60;99.90;;;;;;7384788;19;20258;-76
2023/01/20 01:02:21;;;;;;;11.17;6.90;;;3.80;99.90;;;;;;7388397;19;20243;-77
2023/01/20 01:04:50;;;;;;;10.50;7.17;;;3.60;99.90;;;;;;7387511;19;20214;-75
2023/01/20 01:07:16;;;;;;;11.57;7.23;;;3.90;99.90;;;;;;7390673;19;20135;-76
2023/01/20 01:09:42;;;;;;;9.77;6.63;;;3.50;99.90;;;;;;7395360;19;20243;-75
2023/01/20 01:12:08;;;;;;;11.47;6.70;;;3.30;99.90;;;;;;7392039;19;20179;-75
2023/01/20 01:14:34;;;;;;;10.50;6.30;;;3.50;99.90;;;;;;7393711;19;20222;-75
2023/01/20 01:16:59;;;;;;;10.37;6.70;;;3.80;99.90;;;;;;7395452;19;20138;-76
2023/01/20 01:19:25;;;;;;;11.70;7.03;;;4.10;99.90;;;;;;7394334;19;20146;-75
2023/01/20 01:21:51;;;;;;;12.13;7.03;;;4.10;99.90;;;;;;7393363;19;20206;-75
2023/01/20 01:24:17;;;;;;;10.03;6.37;;;4.10;99.90;;;;;;7393629;19;20131;-74
2023/01/20 01:26:43;;;;;;;11.70;7.13;;;3.70;99.90;;;;;;7395279;19;20556;-76
2023/01/20 01:29:09;;;;;;;9.63;7.03;;;3.60;99.90;;;;;;7387900;19;20162;-75
2023/01/20 01:31:35;;;;;;;11.07;6.43;;;3.20;99.90;;;;;;7391954;19;20568;-73
2023/01/20 01:34:00;;;;;;;11.50;7.20;;;3.30;99.90;;;;;;7391820;19;20133;-76
2023/01/20 01:36:26;;;;;;;10.10;7.10;;;3.20;99.90;;;;;;7390965;19;20171;-76
2023/01/20 01:38:52;;;;;;;14.90;7.73;;;3.60;99.90;;;;;;7392624;19;20126;-74
2023/01/20 01:41:17;;;;;;;10.97;6.83;;;3.10;99.90;;;;;;7393907;19;20146;-75
2023/01/20 01:44:08;;;;;;;9.57;6.73;;;3.50;99.90;;;;;;7394241;19;20223;-75
2023/01/20 01:46:36;;;;;;;14.13;7.30;;;3.80;99.90;;;;;;7393078;19;20147;-77
2023/01/20 01:49:12;;;;;;;8.70;6.50;;;4.00;99.90;;;;;;7392687;19;20532;-74
2023/01/20 01:51:44;;;;;;;10.63;7.03;;;3.90;99.90;;;;;;7389767;19;20137;-75
2023/01/20 01:54:18;;;;;;;11.20;6.63;;;3.80;99.90;;;;;;7392494;19;20157;-75
2023/01/20 01:56:45;;;;;;;12.93;6.97;;;3.90;99.90;;;;;;7392063;19;20522;-76
2023/01/20 01:59:12;;;;;;;13.07;6.73;;;4.10;99.90;;;;;;7391960;19;20135;-75
2023/01/20 02:01:41;;;;;;;10.47;7.20;;;4.10;99.90;;;;;;7390723;19;20175;-75
2023/01/20 02:04:12;;;;;;;11.60;6.77;;;4.10;99.90;;;;;;7392591;19;20145;-77
2023/01/20 02:06:49;;;;;;;10.67;6.53;;;4.20;99.90;;;;;;7394201;19;20547;-75
2023/01/20 02:09:15;;;;;;;10.77;6.60;;;4.30;99.90;;;;;;7391155;19;20142;-75
2023/01/20 02:11:47;;;;;;;10.23;6.57;;;4.30;99.90;;;;;;7389942;19;20137;-76
2023/01/20 02:14:16;;;;;;;10.20;6.93;;;4.30;99.90;;;;;;7391486;19;20135;-76
2023/01/20 02:16:47;;;;;;;10.27;7.60;;;4.30;99.90;;;;;;7392807;19;20580;-76
2023/01/20 02:19:28;;;;;;;12.23;8.20;;;4.00;99.90;;;;;;7388840;19;20139;-76
2023/01/20 02:22:15;;;;;;;11.17;6.70;;;4.10;99.90;;;;;;7391313;19;20611;-75
2023/01/20 02:25:01;;;;;;;10.33;6.57;;;4.10;99.90;;;;;;7384505;19;20146;-75
2023/01/20 02:27:51;;;;;;;13.17;7.00;;;4.20;99.90;;;;;;7391521;19;20150;-75
2023/01/20 02:30:36;;;;;;;10.80;6.93;;;4.20;99.90;;;;;;7391705;19;20599;-76
2023/01/20 02:33:18;;;;;;;12.47;7.80;;;4.20;99.90;;;;;;7389960;19;20135;-76
2023/01/20 02:35:53;;;;;;;12.67;7.83;;;4.20;99.90;;;;;;7392611;19;20138;-75
2023/01/20 02:38:47;;;;;;;14.80;7.53;;;4.20;99.90;;;;;;7392975;19;20145;-76
2023/01/20 02:41:25;;;;;;;12.03;7.57;;;4.20;99.90;;;;;;7389774;19;20218;-77
2023/01/20 02:44:17;;;;;;;10.10;6.93;;;4.20;99.90;;;;;;7392198;19;20198;-76
2023/01/20 02:47:08;;;;;;;13.40;8.33;;;4.00;99.90;;;;;;7391155;19;20171;-75
2023/01/20 02:49:53;;;;;;;12.27;7.33;;;4.10;99.90;;;;;;7392207;19;20130;-76
2023/01/20 02:52:26;;;;;;;10.73;7.47;;;4.10;99.90;;;;;;7392598;19;20142;-76
2023/01/20 02:54:56;;;;;;;12.43;7.63;;;4.20;99.90;;;;;;7391624;19;20141;-74
2023/01/20 02:57:34;;;;;;;12.70;7.43;;;3.80;99.90;;;;;;7391673;19;20205;-76
2023/01/20 03:00:06;;;;;;;12.93;7.83;;;3.90;99.90;;;;;;7394000;19;20175;-76
2023/01/20 03:02:33;;;;;;;11.73;7.07;;;4.00;99.90;;;;;;7392000;19;20134;-76
2023/01/20 03:05:07;;;;;;;9.93;6.83;;;3.90;99.90;;;;;;7389328;19;20138;-75
2023/01/20 03:07:36;;;;;;;11.93;7.73;;;3.90;99.90;;;;;;7393074;19;20131;-76
2023/01/20 03:10:06;;;;;;;13.17;7.20;;;4.00;99.90;;;;;;7388085;19;20131;-74
2023/01/20 03:12:43;;;;;;;11.10;7.70;;;4.00;99.90;;;;;;7387577;19;20233;-75
2023/01/20 03:15:09;;;;;;;11.53;7.37;;;4.10;99.90;;;;;;7390350;19;20590;-75
2023/01/20 03:17:35;;;;;;;11.37;7.90;;;3.90;99.90;;;;;;7392151;19;20143;-74
2023/01/20 03:20:02;;;;;;;13.47;7.70;;;4.00;99.90;;;;;;7393076;19;20126;-77
2023/01/20 03:22:30;;;;;;;10.30;7.37;;;4.00;99.90;;;;;;7384606;19;20134;-76
2023/01/20 03:24:58;;;;;;;11.97;7.33;;;4.10;99.90;;;;;;7388521;19;20461;-75
2023/01/20 03:27:24;;;;;;;10.73;7.03;;;4.10;99.90;;;;;;7390364;19;20471;-76
2023/01/20 03:29:50;;;;;;;11.83;7.13;;;4.10;99.90;;;;;;7390309;19;20159;-75
2023/01/20 03:32:24;;;;;;;10.23;7.00;;;4.10;99.90;;;;;;7386279;19;20130;-76
2023/01/20 03:34:52;;;;;;;11.83;7.27;;;4.00;99.90;;;;;;7388780;19;20161;-76
2023/01/20 03:37:19;;;;;;;10.20;6.80;;;4.10;99.90;;;;;;7388762;19;20131;-75
2023/01/20 03:39:45;;;;;;;10.20;6.43;;;4.10;99.90;;;;;;7392551;19;20868;-76
2023/01/20 03:42:26;;;;;;;12.90;6.67;;;4.10;99.90;;;;;;7390338;19;20168;-75
2023/01/20 03:45:08;;;;;;;10.27;5.80;;;4.10;99.90;;;;;;7392513;19;20654;-76
2023/01/20 03:47:57;;;;;;;7.10;5.50;;;4.00;99.90;;;;;;7390777;19;20134;-76
2023/01/20 03:50:41;;;;;;;9.23;5.30;;;4.00;99.90;;;;;;7381893;19;20599;-75
2023/01/20 03:53:15;;;;;;;8.07;5.23;;;3.80;99.90;;;;;;7386798;19;20174;-76
2023/01/20 03:55:56;;;;;;;6.67;4.50;;;4.00;99.90;;;;;;7390454;19;20209;-75
2023/01/20 03:58:31;;;;;;;6.37;4.23;;;4.10;99.90;;;;;;7387487;19;20479;-74
2023/01/20 04:00:59;;;;;;;7.63;5.10;;;4.10;99.90;;;;;;7390609;19;20146;-76
2023/01/20 04:03:36;;;;;;;5.87;4.07;;;4.10;99.90;;;;;;7388213;19;20130;-76
2023/01/20 04:06:05;;;;;;;7.07;4.70;;;4.20;99.90;;;;;;7393048;19;20126;-76
2023/01/20 04:08:34;;;;;;;5.33;4.23;;;4.20;99.90;;;;;;7387708;19;20592;-75
2023/01/20 04:11:03;;;;;;;6.50;4.57;;;4.20;99.90;;;;;;7390694;19;20131;-74
2023/01/20 04:13:29;;;;;;;11.17;4.40;;;4.20;99.90;;;;;;7384426;19;20157;-76
2023/01/20 04:15:57;;;;;;;7.00;4.90;;;4.00;99.90;;;;;;7390106;19;20135;-76
2023/01/20 04:18:23;;;;;;;8.87;4.27;;;4.10;99.90;;;;;;7389109;19;20447;-76
2023/01/20 04:21:02;;;;;;;5.57;4.17;;;4.00;99.90;;;;;;7389487;19;20135;-76
2023/01/20 04:23:37;;;;;;;7.60;4.73;;;4.10;99.90;;;;;;7386080;19;20134;-75
2023/01/20 04:26:03;;;;;;;5.77;4.27;;;4.10;99.90;;;;;;7388845;19;20149;-73
2023/01/20 04:28:29;;;;;;;6.80;4.33;;;4.10;99.90;;;;;;7388870;19;20127;-73
2023/01/20 04:30:55;;;;;;;6.30;4.60;;;4.20;99.90;;;;;;7388945;19;20166;-76
2023/01/20 04:33:20;;;;;;;7.67;4.53;;;4.10;99.90;;;;;;7387684;19;20134;-75
2023/01/20 04:35:46;;;;;;;6.70;4.53;;;4.10;99.90;;;;;;7387400;19;20122;-75
2023/01/20 04:38:12;;;;;;;5.87;4.17;;;4.20;99.90;;;;;;7391635;19;20199;-75
2023/01/20 04:40:38;;;;;;;7.53;4.03;;;4.20;99.90;;;;;;7389274;19;20147;-75
2023/01/20 04:43:04;;;;;;;5.77;3.83;;;4.20;99.90;;;;;;7393195;19;20171;-75
2023/01/20 04:45:30;;;;;;;6.13;4.50;;;4.10;99.90;;;;;;7394110;19;20139;-75
2023/01/20 04:47:55;;;;;;;6.97;4.17;;;4.10;99.90;;;;;;7396776;19;20246;-76
2023/01/20 04:50:21;;;;;;;7.33;4.50;;;4.10;99.90;;;;;;7394641;19;20122;-76
2023/01/20 04:52:47;;;;;;;6.50;4.20;;;4.20;99.90;;;;;;7394583;19;20588;-75
2023/01/20 04:55:13;;;;;;;7.83;4.53;;;4.10;99.90;;;;;;7395497;19;20127;-76
2023/01/20 04:57:39;;;;;;;6.13;4.33;;;4.10;99.90;;;;;;7396888;19;20505;-76
2023/01/20 05:00:06;;;;;;;6.20;3.90;;;4.20;99.90;;;;;;7395908;19;20171;-75
2023/01/20 05:02:31;;;;;;;6.27;4.27;;;4.10;99.90;;;;;;7396454;19;20210;-76
2023/01/20 05:04:57;;;;;;;8.70;4.20;;;4.20;99.90;;;;;;7394678;19;20526;-74
2023/01/20 05:07:23;;;;;;;6.10;4.23;;;4.20;99.90;;;;;;7396401;19;20131;-76
2023/01/20 05:09:49;;;;;;;8.17;4.33;;;4.20;99.90;;;;;;7395135;19;20890;-76
2023/01/20 05:12:14;;;;;;;5.97;4.27;;;4.10;99.90;;;;;;7395196;19;20138;-75
2023/01/20 05:14:40;;;;;;;6.43;4.27;;;3.70;99.90;;;;;;7393064;19;20126;-75
2023/01/20 05:17:06;;;;;;;7.03;4.60;;;3.90;99.90;;;;;;7394402;19;20134;-77
2023/01/20 05:19:32;;;;;;;7.47;5.10;;;4.00;99.90;;;;;;7394552;19;20161;-76
2023/01/20 05:21:59;;;;;;;7.67;4.73;;;4.10;99.90;;;;;;7395173;19;20146;-76
2023/01/20 05:24:24;;;;;;;8.87;5.40;;;4.10;99.90;;;;;;7394058;19;20135;-76
2023/01/20 05:26:50;;;;;;;6.17;4.83;;;4.20;99.90;;;;;;7393367;19;20119;-75
2023/01/20 05:29:16;;;;;;;6.47;4.50;;;4.10;99.90;;;;;;7394365;19;20161;-76
2023/01/20 05:31:42;;;;;;;6.27;4.50;;;4.00;99.90;;;;;;7395844;19;20122;-77
2023/01/20 05:34:10;;;;;;;8.27;4.17;;;4.10;99.90;;;;;;7393804;19;20122;-76
2023/01/20 05:36:36;;;;;;;9.13;5.07;;;3.70;99.90;;;;;;7397058;19;20572;-77
2023/01/20 05:39:02;;;;;;;6.97;4.40;;;3.90;99.90;;;;;;7392298;19;20243;-75
2023/01/20 05:41:28;;;;;;;6.03;4.23;;;3.90;99.90;;;;;;7393234;19;20151;-76
2023/01/20 05:43:53;;;;;;;6.10;4.33;;;4.00;99.90;;;;;;7390365;19;20615;-76
2023/01/20 05:46:20;;;;;;;7.40;4.40;;;4.10;99.90;;;;;;7393042;19;20138;-78
2023/01/20 05:48:45;;;;;;;6.17;4.53;;;3.80;99.90;;;;;;7392431;19;20155;-75
2023/01/20 05:51:11;;;;;;;7.17;4.30;;;3.90;99.90;;;;;;7394320;19;20127;-75
2023/01/20 05:53:37;;;;;;;6.60;4.27;;;3.90;99.90;;;;;;7390437;19;20579;-75
2023/01/20 05:56:04;;;;;;;7.87;4.37;;;3.30;99.90;;;;;;7395550;19;20156;-75
2023/01/20 05:58:31;;;;;;;5.17;4.00;;;3.50;99.90;;;;;;7393978;19;20154;-76
2023/01/20 06:01:11;;;;;;;7.30;4.70;;;3.60;99.90;;;;;;7393400;19;20150;-76
2023/01/20 06:03:37;;;;;;;6.77;4.80;;;3.80;99.90;;;;;;7391981;19;20548;-77
2023/01/20 06:06:05;;;;;;;6.53;4.90;;;3.90;99.90;;;;;;7394971;19;20131;-77
2023/01/20 06:08:31;;;;;;;7.07;4.50;;;4.00;99.90;;;;;;7392982;19;20147;-76
2023/01/20 06:10:57;;;;;;;7.80;4.57;;;3.90;99.90;;;;;;7391530;19;20171;-76
2023/01/20 06:13:23;;;;;;;6.70;4.77;;;3.80;99.90;;;;;;7393045;19;20131;-77
2023/01/20 06:15:55;;;;;;;9.27;4.97;;;3.90;99.90;;;;;;7391365;19;20160;-75
2023/01/20 06:18:22;;;;;;;5.60;4.10;;;3.90;99.90;;;;;;7394301;19;20151;-75
2023/01/20 06:20:48;;;;;;;7.53;4.90;;;4.00;99.90;;;;;;7389947;19;20149;-78
2023/01/20 06:23:14;;;;;;;6.87;4.53;;;4.10;99.90;;;;;;7392363;19;20143;-77
2023/01/20 06:25:42;;;;;;;7.00;4.23;;;4.10;99.90;;;;;;7394353;19;20133;-77
2023/01/20 06:28:08;;;;;;;6.83;5.00;;;4.10;99.90;;;;;;7392812;19;20127;-77
2023/01/20 06:30:34;;;;;;;7.60;5.00;;;4.20;99.90;;;;;;7391866;19;20160;-77
2023/01/20 06:33:00;;;;;;;6.17;4.13;;;4.20;99.90;;;;;;7386013;19;20134;-78
2023/01/20 06:35:26;;;;;;;6.97;4.20;;;4.20;99.90;;;;;;7388347;19;20135;-77
2023/01/20 06:37:51;;;;;;;7.60;4.27;;;4.10;99.90;;;;;;7389268;19;20155;-78
2023/01/20 06:40:17;;;;;;;9.63;6.40;;;4.00;99.90;;;;;;7386973;19;20207;-75
2023/01/20 06:42:43;;;;;;;10.67;7.00;;;4.00;99.90;;;;;;7385916;19;20565;-77
2023/01/20 06:45:09;;;;;;;7.83;5.00;;;4.10;99.90;;;;;;7386735;19;20142;-76
2023/01/20 06:47:35;;;;;;;8.43;4.97;;;4.10;99.90;;;;;;7386661;19;20150;-76
2023/01/20 06:50:01;;;;;;;5.57;4.27;;;4.10;99.90;;;;;;7389642;19;20131;-77
2023/01/20 06:52:26;;;;;;;6.27;4.80;;;4.10;99.90;;;;;;7387070;19;20602;-78
2023/01/20 06:54:52;;;;;;;7.83;4.87;;;4.20;99.90;;;;;;7390121;19;20649;-77
2023/01/20 06:57:18;;;;;;;5.70;4.53;;;4.20;99.90;;;;;;7386999;19;20130;-77
2023/01/20 06:59:44;;;;;;;8.10;4.70;;;4.20;99.90;;;;;;7387973;19;20593;-77
2023/01/20 07:02:13;;;;;;;8.03;5.30;;;4.10;99.90;;;;;;7384328;19;20126;-77
2023/01/20 07:04:39;;;;;;;7.87;4.43;;;4.10;99.90;;;;;;7386002;19;20130;-77
2023/01/20 07:07:04;;;;;;;8.00;5.43;;;4.20;99.90;;;;;;7388281;19;20206;-78
2023/01/20 07:09:30;;;;;;;8.37;4.73;;;4.20;99.90;;;;;;7389443;19;20141;-78
2023/01/20 07:11:56;;;;;;;7.23;4.87;;;4.20;99.90;;;;;;7389084;19;20143;-78
2023/01/20 07:14:21;;;;;;;10.67;5.23;;;4.20;99.90;;;;;;7390530;19;20131;-76
2023/01/20 07:16:47;;;;;;;6.47;4.67;;;4.20;99.90;;;;;;7390028;19;20137;-77
2023/01/20 07:19:13;;;;;;;11.23;7.20;;;4.20;99.90;;;;;;7388730;19;20658;-77
2023/01/20 07:21:39;;;;;;;8.07;5.30;;;4.10;99.90;;;;;;7390431;19;20151;-77
2023/01/20 07:24:05;;;;;;;5.90;4.43;;;4.20;99.90;;;;;;7388037;19;20452;-77
2023/01/20 07:26:31;;;;;;;8.00;5.43;;;4.20;99.90;;;;;;7389081;19;20269;-75
2023/01/20 07:28:58;;;;;;;6.20;4.87;;;4.10;99.90;;;;;;7388799;19;20161;-76
2023/01/20 07:31:26;;;;;;;8.67;5.30;;;4.10;99.90;;;;;;7384928;19;20150;-76
2023/01/20 07:33:55;;;;;;;7.20;4.67;;;4.20;99.90;;;;;;7386860;19;20142;-75
2023/01/20 07:36:21;;;;;;;7.80;5.37;;;4.10;99.90;;;;;;7390684;19;20135;-75
2023/01/20 07:38:51;;;;;;;6.80;4.80;;;3.80;99.90;;;;;;7390738;19;20474;-75
2023/01/20 07:41:49;;;;;;;;;;;;;;;;;;;;;
2023/01/20 07:44:41;;;;;;;7.37;4.77;;;4.00;99.90;;;;;;7391317;19;20158;-79
2023/01/20 07:47:17;;;;;;;8.43;5.23;;;4.20;99.90;;;;;;7389839;19;20154;-77
2023/01/20 07:49:43;;;;;;;7.10;4.53;;;4.20;99.90;;;;;;7390055;19;20583;-75
2023/01/20 07:52:11;;;;;;;7.47;4.63;;;4.30;99.90;;;;;;7388370;19;20298;-78
2023/01/20 07:54:39;;;;;;;7.63;4.67;;;4.30;99.90;;;;;;7388862;19;20153;-78
2023/01/20 07:57:04;;;;;;;7.37;4.67;;;4.30;99.90;;;;;;7390881;19;20658;-75
2023/01/20 07:59:33;;;;;;;8.20;4.50;;;4.30;99.90;;;;;;7390173;19;20149;-76
2023/01/20 08:02:02;;;;;;;6.73;4.63;;;4.30;99.90;;;;;;7387825;19;20154;-78
2023/01/20 08:04:31;;;;;;;6.10;4.67;;;4.30;99.90;;;;;;7386662;19;20163;-75
2023/01/20 08:07:02;;;;;;;6.80;4.83;;;4.40;99.90;;;;;;7388053;19;20169;-76
2023/01/20 08:09:28;;;;;;;6.80;4.13;;;4.50;99.90;;;;;;7388009;19;20135;-75
2023/01/20 08:11:54;;;;;;;6.63;4.70;;;4.20;99.90;;;;;;7388459;19;20146;-76
2023/01/20 08:14:19;;;;;;;9.30;4.77;;;4.10;99.90;;;;;;7387943;19;20119;-75
2023/01/20 08:16:45;;;;;;;7.93;4.93;;;3.90;99.90;;;;;;7390767;19;20134;-76
2023/01/20 08:19:11;;;;;;;8.43;5.50;;;4.10;99.90;;;;;;7392054;19;20127;-76
2023/01/20 08:21:37;;;;;;;8.87;4.97;;;4.20;99.90;;;;;;7394019;19;20167;-77
2023/01/20 08:24:05;;;;;;;8.57;4.60;;;4.30;99.90;;;;;;7390471;19;20475;-77
2023/01/20 08:26:32;;;;;;;6.67;4.53;;;4.20;99.90;;;;;;7394728;19;20127;-75
2023/01/20 08:29:06;;;;;;;8.60;5.43;;;4.10;99.90;;;;;;7394169;19;20127;-75
2023/01/20 08:31:31;;;;;;;11.40;5.27;;;4.20;99.90;;;;;;7394225;19;20552;-75
2023/01/20 08:33:58;;;;;;;8.03;5.60;;;4.30;99.90;;;;;;7393306;19;20130;-75
2023/01/20 08:36:28;;;;;;;7.63;5.23;;;4.30;99.90;;;;;;7393529;19;20215;-75
2023/01/20 08:38:56;;;;;;;8.90;5.93;;;4.40;99.90;;;;;;7394429;19;20621;-75
2023/01/20 08:41:26;;;;;;;8.70;5.47;;;4.40;99.90;;;;;;7393698;19;20202;-78
2023/01/20 08:43:51;;;;;;;8.30;4.83;;;4.50;99.90;;;;;;7394437;19;20647;-77
2023/01/20 08:46:19;;;;;;;8.67;5.23;;;4.40;99.90;;;;;;7395024;19;20138;-77
2023/01/20 08:48:49;;;;;;;7.07;4.67;;;4.40;99.90;;;;;;7397145;19;20135;-79
2023/01/20 08:51:23;;;;;;;14.30;5.73;;;4.50;99.90;;;;;;7398321;19;20597;-75
2023/01/20 08:53:50;;;;;;;9.80;5.50;;;4.60;99.90;;;;;;7395488;19;20143;-75
2023/01/20 08:56:16;;;;;;;6.77;4.97;;;4.70;99.90;;;;;;7393522;19;20225;-76
2023/01/20 08:58:43;;;;;;;11.17;5.30;;;4.70;99.90;;;;;;7393868;19;20596;-75
2023/01/20 09:01:12;;;;;;;11.60;5.03;;;4.80;99.90;;;;;;7395149;19;20662;-76
2023/01/20 09:03:39;;;;;;;13.37;6.03;;;4.70;99.90;;;;;;7394029;19;20147;-77
2023/01/20 09:06:06;;;;;;;9.37;5.33;;;4.70;99.90;;;;;;7391848;19;20156;-76
2023/01/20 09:08:32;;;;;;;9.00;5.00;;;4.80;99.90;;;;;;7393125;19;20807;-77
2023/01/20 09:11:07;;;;;;;9.17;5.37;;;4.80;99.90;;;;;;7390838;19;20478;-76
2023/01/20 09:13:32;;;;;;;9.10;5.23;;;4.80;99.90;;;;;;7390944;19;20130;-75
2023/01/20 09:15:58;;;;;;;8.13;5.23;;;4.80;99.90;;;;;;7390731;19;20167;-75
2023/01/20 09:18:24;;;;;;;6.03;4.73;;;4.80;99.90;;;;;;7392479;19;20147;-77
2023/01/20 09:20:50;;;;;;;6.73;4.83;;;4.80;99.90;;;;;;7393076;19;20204;-78
2023/01/20 09:23:16;;;;;;;9.20;5.13;;;4.80;99.90;;;;;;7393712;19;20589;-77
2023/01/20 09:25:42;;;;;;;8.73;5.17;;;4.70;99.90;;;;;;7392801;19;20505;-77
2023/01/20 09:28:07;;;;;;;11.80;6.20;;;4.70;99.90;;;;;;7393239;19;20590;-77
2023/01/20 09:30:33;;;;;;;6.53;4.80;;;4.70;99.90;;;;;;7394025;19;20269;-77
2023/01/20 09:32:59;;;;;;;6.40;4.77;;;4.70;99.90;;;;;;7392132;19;20599;-82
2023/01/20 09:35:25;;;;;;;7.23;5.20;;;4.80;99.90;;;;;;7395932;19;20751;-77
2023/01/20 09:43:55;;;;;;;7.67;4.97;;;4.80;99.90;;;;;;7393077;19;20142;-77
2023/01/20 09:46:29;;;;;;;6.33;4.97;;;4.80;99.90;;;;;;7391117;19;20618;-77
2023/01/20 09:55:34;;;;;;;7.10;4.80;;;4.80;99.90;;;;;;7394592;19;20241;-75
2023/01/20 09:58:33;;;;;;;8.93;5.60;;;4.80;99.90;;;;;;7390794;19;20147;-77
2023/01/20 10:01:29;;;;;;;7.10;5.57;;;4.90;99.90;;;;;;7393462;19;20151;-77
2023/01/20 10:04:10;;;;;;;10.50;7.13;;;4.90;99.90;;;;;;7391338;19;20142;-77
2023/01/20 10:06:44;;;;;;;9.57;5.87;;;4.90;99.90;;;;;;7391825;19;20210;-77
2023/01/20 10:09:39;;;;;;;7.70;5.10;;;5.10;99.90;;;;;;7392591;19;20142;-78
2023/01/20 10:12:08;;;;;;;8.80;5.90;;;5.00;99.90;;;;;;7396809;19;20154;-77
2023/01/20 10:15:01;;;;;;;9.87;5.73;;;5.00;99.90;;;;;;7390094;19;20143;-77
2023/01/20 10:17:30;;;;;;;11.07;5.60;;;5.10;99.90;;;;;;7403669;19;20138;-78
2023/01/20 10:20:02;;;;;;;8.63;6.03;;;5.00;99.90;;;;;;7393224;19;20466;-74
2023/01/20 10:22:34;;;;;;;7.33;5.37;;;5.00;99.90;;;;;;7402132;19;20587;-77
2023/01/20 10:25:06;;;;;;;11.10;5.00;;;5.00;99.90;;;;;;7392676;19;20134;-77
2023/01/20 10:27:34;;;;;;;8.63;5.27;;;5.10;99.90;;;;;;7391944;19;20690;-77
2023/01/20 10:30:11;;;;;;;7.20;4.80;;;5.00;99.90;;;;;;7389958;19;20178;-76
2023/01/20 10:32:41;;;;;;;9.43;5.60;;;5.00;99.90;;;;;;7395004;19;20126;-76
2023/01/20 10:35:20;;;;;;;7.60;5.00;;;5.00;99.90;;;;;;7391062;19;20157;-78
2023/01/20 10:37:48;;;;;;;7.70;4.77;;;5.10;99.90;;;;;;7392093;19;20425;-78
2023/01/20 10:40:46;;;;;;;6.83;4.63;;;5.00;99.90;;;;;;7388165;19;20134;-73
2023/01/20 10:43:14;;;;;;;7.83;4.97;;;5.10;99.90;;;;;;7392285;19;20138;-77
2023/01/20 10:46:15;;;;;;;8.10;4.37;;;5.10;99.90;;;;;;7390452;19;20134;-77
2023/01/20 10:49:08;;;;;;;9.83;6.50;;;5.10;99.90;;;;;;7394942;19;20150;-77
2023/01/20 10:51:37;;;;;;;9.67;6.20;;;5.00;99.90;;;;;;7393242;19;20507;-77
2023/01/20 10:54:15;;;;;;;6.53;5.00;;;5.10;99.90;;;;;;7389098;19;20142;-77
2023/01/20 10:57:11;;;;;;;7.43;5.07;;;5.10;99.90;;;;;;7391609;19;20135;-77
2023/01/20 10:59:46;;;;;;;5.73;3.90;;;5.20;99.90;;;;;;7386067;19;20143;-78
2023/01/20 11:02:24;;;;;;;7.93;4.77;;;5.20;99.90;;;;;;7390918;19;20149;-77
2023/01/20 11:05:00;;;;;;;5.43;3.83;;;5.20;99.90;;;;;;7388817;19;20131;-76
2023/01/20 11:07:29;;;;;;;8.70;6.00;;;5.20;99.90;;;;;;7389703;19;20130;-79
2023/01/20 11:09:58;;;;;;;7.60;4.90;;;5.10;99.90;;;;;;7392924;19;20127;-79
2023/01/20 11:12:29;;;;;;;9.60;4.43;;;5.20;99.90;;;;;;7400041;19;20526;-78
2023/01/20 11:14:56;;;;;;;6.97;3.30;;;5.20;99.90;;;;;;7388192;19;20616;-75
2023/01/20 11:17:22;;;;;;;5.13;3.33;;;5.20;99.90;;;;;;7389951;19;20462;-76
2023/01/20 11:19:49;;;;;;;4.47;3.10;;;5.20;99.90;;;;;;7388580;19;20829;-75
2023/01/20 11:22:23;;;;;;;6.80;3.73;;;5.10;99.90;;;;;;7393214;19;20130;-76
2023/01/20 11:24:54;;;;;;;5.07;3.17;;;5.20;99.90;;;;;;7390718;19;20471;-76
2023/01/20 11:27:23;;;;;;;5.00;3.03;;;5.50;99.90;;;;;;7389095;19;20157;-78
2023/01/20 11:29:57;;;;;;;5.00;3.17;;;5.70;99.90;;;;;;7389177;19;20134;-76
2023/01/20 11:32:29;;;;;;;5.90;3.50;;;5.90;99.90;;;;;;7378330;19;20149;-76
2023/01/20 11:34:55;;;;;;;5.40;4.00;;;6.00;99.90;;;;;;7387214;19;20146;-77
2023/01/20 11:37:25;;;;;;;4.33;3.17;;;6.10;99.90;;;;;;7387146;19;20141;-78
2023/01/20 11:40:30;;;;;;;3.67;3.23;;;6.10;99.90;;;;;;7388509;19;20135;-77
2023/01/20 11:42:55;;;;;;;5.37;3.40;;;6.00;99.90;;;;;;7388905;19;20142;-76
2023/01/20 11:45:47;;;;;;;4.70;3.10;;;5.70;99.90;;;;;;7386606;19;20609;-77
2023/01/20 11:48:13;;;;;;;5.27;3.53;;;5.60;99.90;;;;;;7389242;19;20163;-77
2023/01/20 11:50:56;;;;;;;6.43;3.77;;;5.60;99.90;;;;;;7403067;19;20140;-75
2023/01/20 11:53:24;;;;;;;7.30;3.20;;;5.80;99.90;;;;;;7388202;19;20256;-77
2023/01/20 11:55:55;;;;;;;4.17;2.83;;;5.80;99.90;;;;;;7397793;19;20131;-77
2023/01/20 11:58:27;;;;;;;5.57;2.67;;;5.70;99.90;;;;;;7389659;19;20158;-76
2023/01/20 12:01:03;;;;;;;5.17;2.67;;;5.70;99.90;;;;;;7386127;19;20158;-74
2023/01/20 12:04:06;;;;;;;3.70;2.50;;;5.80;99.90;;;;;;7386825;19;20503;-76
2023/01/20 12:06:51;;;;;;;3.77;2.53;;;5.70;99.90;;;;;;7387733;19;20138;-77
2023/01/20 12:09:21;;;;;;;4.00;2.53;;;5.50;99.90;;;;;;7386192;19;20122;-76
2023/01/20 12:12:10;;;;;;;8.50;3.10;;;5.60;99.90;;;;;;7386357;19;20151;-77
2023/01/20 12:14:44;;;;;;;5.60;2.60;;;5.60;99.90;;;;;;7386795;19;20151;-76
2023/01/20 12:17:35;;;;;;;6.33;2.83;;;5.60;99.90;;;;;;7388103;19;20218;-75
2023/01/20 12:20:22;;;;;;;4.50;2.97;;;5.60;99.90;;;;;;7393396;19;20146;-77
2023/01/20 12:23:13;;;;;;;6.60;2.67;;;5.60;99.90;;;;;;7390579;19;20138;-76
2023/01/20 12:25:51;;;;;;;9.00;2.27;;;5.60;99.90;;;;;;7387129;19;20131;-75
2023/01/20 12:28:35;;;;;;;2.73;2.03;;;5.60;99.90;;;;;;7385363;19;20142;-76
2023/01/20 12:31:02;;;;;;;3.97;2.03;;;5.70;99.90;;;;;;7387438;19;20491;-76
2023/01/20 12:33:35;;;;;;;5.57;2.53;;;5.80;99.90;;;;;;7383353;19;20146;-77
2023/01/20 12:36:32;;;;;;;3.30;1.97;;;5.80;99.90;;;;;;7389069;19;20143;-76
2023/01/20 12:39:15;;;;;;;3.20;2.00;;;5.60;99.90;;;;;;7388753;19;20177;-77
2023/01/20 12:41:50;;;;;;;2.83;2.10;;;5.80;99.90;;;;;;7391307;19;20486;-77
2023/01/20 12:44:35;;;;;;;3.53;2.10;;;5.90;99.90;;;;;;7389327;19;20141;-77
2023/01/20 12:47:21;;;;;;;4.87;2.70;;;5.80;99.90;;;;;;7387272;19;20143;-77
2023/01/20 12:50:08;;;;;;;4.13;2.30;;;5.90;99.90;;;;;;7388013;19;20143;-78
2023/01/20 12:52:56;;;;;;;3.00;2.20;;;5.90;99.90;;;;;;7386065;19;20218;-76
2023/01/20 12:55:34;;;;;;;4.63;2.10;;;5.80;99.90;;;;;;7385198;19;20143;-75
2023/01/20 12:57:59;;;;;;;5.47;2.60;;;5.90;99.90;;;;;;7387088;19;20143;-73
2023/01/20 13:00:38;;;;;;;4.73;2.10;;;5.90;99.90;;;;;;7388468;19;20199;-75
2023/01/20 13:03:22;;;;;;;4.13;2.77;;;5.90;99.90;;;;;;7392430;19;20615;-75
2023/01/20 13:06:19;;;;;;;7.07;2.83;;;5.90;99.90;;;;;;7397212;19;20134;-75
2023/01/20 13:08:47;;;;;;;5.20;3.27;;;5.80;99.90;;;;;;7394655;19;20621;-77
2023/01/20 13:11:43;;;;;;;6.53;4.13;;;5.70;99.90;;;;;;7394123;19;20514;-76
2023/01/20 13:14:19;;;;;;;5.03;2.93;;;5.70;99.90;;;;;;7394104;19;20127;-75
2023/01/20 13:17:06;;;;;;;9.43;3.70;;;5.50;99.90;;;;;;7394243;19;20475;-76
2023/01/20 13:19:36;;;;;;;4.10;2.93;;;5.50;99.90;;;;;;7394691;19;21189;-76
2023/01/20 13:22:19;;;;;;;3.23;2.90;;;5.40;99.90;;;;;;7392343;19;20623;-79
2023/01/20 13:24:47;;;;;;;3.90;2.67;;;5.50;99.90;;;;;;7391509;19;20618;-77
2023/01/20 13:27:16;;;;;;;4.17;2.80;;;5.60;99.90;;;;;;7390291;19;20206;-78
2023/01/20 13:29:55;;;;;;;3.87;2.43;;;5.50;99.90;;;;;;7391746;19;20213;-74